Kisarazu, Kisarazu Air Field (RJTK)

NameKisarazu Air Field
CityKisarazu
CountryJapan
ICAORJTK
IATA
Altitude3 m
CoordinatesGoogle Map
Live Air TrafficLiveATC.net
METARRJTK 252245Z 02014KT 7000 -RA FEW006 SCT008 BKN010 09/08 Q1014 RMK 1ST006 3ST008 7SC010 A2995
2020-02-25 22:45:00 Wind: North (20°) 7.2 m/s - Visibility: 7000 m - Weather: Light Rain - Temperature: 9 °C - Dew point: 8 °C - Humidity: 93.5% - Pressure: 1014 hPa

Sorry, no flights used the airport in this database.